createdAt,value
2019-03-18T00:00:15.750Z,5.4
2019-03-18T00:03:15.573Z,5.4
2019-03-18T00:06:15.713Z,5.4
2019-03-18T00:09:15.065Z,5.4
2019-03-18T00:12:15.986Z,5.3
2019-03-18T00:15:15.794Z,5.3
2019-03-18T00:18:15.591Z,5.3
2019-03-18T00:21:15.209Z,5.3
2019-03-18T00:24:15.949Z,5.3
2019-03-18T00:27:15.800Z,5.3
2019-03-18T00:30:15.479Z,5.2
2019-03-18T00:33:15.271Z,5.2
2019-03-18T00:36:15.075Z,5.2
2019-03-18T00:39:15.741Z,5.2
2019-03-18T00:42:15.597Z,5.2
2019-03-18T00:45:15.868Z,5.1
2019-03-18T00:48:15.667Z,5.1
2019-03-18T00:51:15.364Z,5.0
2019-03-18T00:54:15.198Z,5.0
2019-03-18T00:57:15.895Z,5.0
2019-03-18T01:00:15.589Z,5.0
2019-03-18T01:03:15.393Z,5.0
2019-03-18T01:06:15.300Z,5.0
2019-03-18T01:09:14.968Z,5.0
2019-03-18T01:12:15.452Z,5.0
2019-03-18T01:15:27.487Z,4.9
2019-03-18T01:18:15.930Z,4.9
2019-03-18T01:21:15.493Z,4.9
2019-03-18T01:24:15.144Z,4.9
2019-03-18T01:27:15.580Z,4.9
2019-03-18T01:30:15.076Z,4.9
2019-03-18T01:33:15.649Z,4.9
2019-03-18T01:36:15.294Z,4.9
2019-03-18T01:39:15.747Z,4.9
2019-03-18T01:42:16.857Z,4.8
2019-03-18T01:45:15.807Z,4.9
2019-03-18T01:51:15.879Z,4.9
2019-03-18T01:54:15.720Z,4.9
2019-03-18T01:57:15.302Z,4.9
2019-03-18T02:00:14.892Z,4.8
2019-03-18T02:03:15.414Z,4.8
2019-03-18T02:06:15.193Z,4.8
2019-03-18T02:09:15.148Z,4.8
2019-03-18T02:12:15.792Z,4.8
2019-03-18T02:15:15.476Z,4.8
2019-03-18T02:21:15.180Z,4.7
2019-03-18T02:24:15.931Z,4.7
2019-03-18T02:27:15.492Z,4.8
2019-03-18T02:30:15.077Z,4.8
2019-03-18T02:33:15.746Z,4.8
2019-03-18T02:36:15.449Z,4.8
2019-03-18T02:39:14.947Z,4.8
2019-03-18T02:42:15.478Z,4.8
2019-03-18T02:45:15.108Z,4.7
2019-03-18T02:48:15.751Z,4.8
2019-03-18T02:51:15.206Z,4.8
2019-03-18T02:54:15.717Z,4.7
2019-03-18T02:57:15.502Z,4.8
2019-03-18T03:00:15.170Z,4.7
2019-03-18T03:03:15.648Z,4.7
2019-03-18T03:06:20.460Z,4.7
2019-03-18T03:09:15.190Z,4.7
2019-03-18T03:12:14.938Z,4.8
2019-03-18T03:15:15.703Z,4.9
2019-03-18T03:18:15.417Z,5.0
2019-03-18T03:21:15.293Z,5.1
2019-03-18T03:24:14.937Z,5.1
2019-03-18T03:27:15.371Z,5.2
2019-03-18T03:30:15.807Z,5.3
2019-03-18T03:33:15.705Z,5.3
2019-03-18T03:36:15.368Z,5.3
2019-03-18T03:39:15.955Z,5.4
2019-03-18T03:42:15.930Z,5.5
2019-03-18T03:45:15.899Z,5.5
2019-03-18T03:48:15.721Z,5.6
2019-03-18T03:51:15.430Z,5.6
2019-03-18T03:54:15.247Z,5.6
2019-03-18T03:57:15.924Z,5.6
2019-03-18T04:00:14.971Z,5.5
2019-03-18T04:03:15.791Z,5.5
2019-03-18T04:06:15.537Z,5.4
2019-03-18T04:09:15.541Z,5.4
2019-03-18T04:12:15.326Z,5.3
2019-03-18T04:15:15.166Z,5.3
2019-03-18T04:18:15.084Z,5.3
2019-03-18T04:21:15.899Z,5.3
2019-03-18T04:27:15.883Z,5.3
2019-03-18T04:30:15.563Z,5.3
2019-03-18T04:33:15.281Z,5.3
2019-03-18T04:36:15.021Z,5.3
2019-03-18T04:39:15.763Z,5.3
2019-03-18T04:42:15.252Z,5.2
2019-03-18T04:45:15.962Z,5.2
2019-03-18T04:48:15.865Z,5.1
2019-03-18T04:51:15.855Z,5.1
2019-03-18T04:54:15.605Z,5.1
2019-03-18T05:03:15.124Z,5.0
2019-03-18T05:06:15.811Z,5.1
2019-03-18T05:09:15.508Z,5.0
2019-03-18T05:12:15.145Z,5.0
2019-03-18T05:15:16.031Z,5.0
2019-03-18T05:18:15.911Z,5.0
2019-03-18T05:21:15.625Z,5.0
2019-03-18T05:24:15.363Z,4.9
2019-03-18T05:27:15.620Z,4.9
2019-03-18T05:30:15.381Z,4.8
2019-03-18T05:33:15.049Z,4.9
2019-03-18T05:36:15.960Z,4.9
2019-03-18T05:39:15.793Z,4.8
2019-03-18T05:42:15.584Z,4.8
2019-03-18T05:45:15.479Z,4.9
2019-03-18T05:48:15.231Z,5.0
2019-03-18T05:51:15.035Z,5.0
2019-03-18T05:54:15.796Z,5.1
2019-03-18T05:57:15.726Z,5.1
2019-03-18T06:00:15.710Z,5.1
2019-03-18T06:03:15.516Z,5.1
2019-03-18T06:06:15.769Z,5.2
2019-03-18T06:09:15.650Z,5.3
2019-03-18T06:12:15.444Z,5.4
2019-03-18T06:15:15.336Z,5.8
2019-03-18T06:18:15.939Z,6.1
2019-03-18T06:21:15.786Z,6.3
2019-03-18T06:24:15.108Z,6.6
2019-03-18T06:27:15.751Z,6.8
2019-03-18T06:30:15.717Z,7.0
2019-03-18T06:33:16.166Z,7.3
2019-03-18T06:36:15.952Z,7.8
2019-03-18T06:39:15.910Z,8.2
2019-03-18T06:42:18.579Z,8.5
2019-03-18T06:45:15.700Z,8.5
2019-03-18T06:48:15.659Z,8.3
2019-03-18T06:51:15.626Z,8.3
2019-03-18T06:54:15.451Z,8.1
2019-03-18T06:57:15.330Z,8.1
2019-03-18T07:00:15.097Z,8.2
2019-03-18T07:03:15.104Z,8.7
2019-03-18T07:06:16.016Z,9.1
2019-03-18T07:09:16.018Z,9.7
2019-03-18T07:12:15.838Z,10.3
2019-03-18T07:15:15.664Z,10.7
2019-03-18T07:18:18.489Z,10.9
2019-03-18T07:21:15.984Z,11.4
2019-03-18T07:24:15.618Z,11.5
2019-03-18T07:27:15.486Z,11.6
2019-03-18T07:30:15.508Z,11.9
2019-03-18T07:33:15.495Z,12.3
2019-03-18T07:36:15.340Z,12.5
2019-03-18T07:39:15.462Z,12.8
2019-03-18T07:42:15.318Z,13.3
2019-03-18T07:45:16.229Z,13.6
2019-03-18T07:48:15.788Z,13.6
2019-03-18T07:51:15.133Z,13.7
2019-03-18T07:54:16.071Z,14.4
2019-03-18T07:57:15.885Z,14.9
2019-03-18T08:00:15.106Z,15.6
2019-03-18T08:03:15.330Z,15.5
2019-03-18T08:06:15.307Z,15.1
2019-03-18T08:09:15.249Z,14.4
2019-03-18T08:12:15.913Z,13.6
2019-03-18T08:15:16.032Z,13.1
2019-03-18T08:18:16.042Z,12.9
2019-03-18T08:21:15.787Z,12.9
2019-03-18T08:24:15.464Z,12.5
2019-03-18T08:27:15.256Z,12.4
2019-03-18T08:30:15.099Z,12.1
2019-03-18T08:33:15.060Z,12.2
2019-03-18T08:36:15.915Z,12.1
2019-03-18T08:39:15.846Z,12.4
2019-03-18T08:42:15.673Z,12.8
2019-03-18T08:45:15.387Z,13.2
2019-03-18T08:48:15.168Z,13.4
2019-03-18T08:51:15.090Z,13.4
2019-03-18T08:54:15.927Z,13.0
2019-03-18T08:57:15.932Z,12.5
2019-03-18T09:00:15.798Z,12.3
2019-03-18T09:06:15.358Z,11.7
2019-03-18T09:09:16.126Z,11.5
2019-03-18T09:12:16.296Z,11.6
2019-03-18T09:15:15.177Z,11.7
2019-03-18T09:18:15.156Z,12.5
2019-03-18T09:21:15.423Z,13.4
2019-03-18T09:24:15.260Z,13.7
2019-03-18T09:27:15.038Z,13.8
2019-03-18T09:30:15.944Z,14.5
2019-03-18T09:33:15.704Z,14.8
2019-03-18T09:36:15.424Z,14.8
2019-03-18T09:39:15.187Z,14.7
2019-03-18T09:42:17.907Z,14.3
2019-03-18T09:45:15.388Z,14.3
2019-03-18T09:48:15.259Z,14.2
2019-03-18T09:51:16.212Z,14.2
2019-03-18T09:54:15.089Z,14.1
2019-03-18T09:57:25.326Z,14.1
2019-03-18T10:00:15.849Z,13.9
2019-03-18T10:03:15.672Z,13.8
2019-03-18T10:06:15.880Z,13.5
2019-03-18T10:09:15.744Z,13.8
2019-03-18T10:12:15.645Z,15.7
2019-03-18T10:15:15.319Z,18.2
2019-03-18T10:18:15.412Z,20.4
2019-03-18T10:21:15.334Z,21.5
2019-03-18T10:24:15.196Z,21.4
2019-03-18T10:27:15.002Z,22.0
2019-03-18T10:30:15.848Z,22.3
2019-03-18T10:33:15.280Z,22.0
2019-03-18T10:36:15.066Z,22.1
2019-03-18T10:39:15.914Z,22.0
2019-03-18T10:42:15.724Z,21.3
2019-03-18T10:45:15.569Z,20.2
2019-03-18T10:48:15.479Z,18.7
2019-03-18T10:51:15.316Z,17.4
2019-03-18T10:54:15.364Z,16.3
2019-03-18T10:57:15.025Z,15.0
2019-03-18T11:00:15.960Z,14.0
2019-03-18T11:03:15.901Z,13.4
2019-03-18T11:06:15.770Z,13.5
2019-03-18T11:09:15.898Z,14.7
2019-03-18T11:12:15.598Z,16.0
2019-03-18T11:15:15.379Z,16.4
2019-03-18T11:18:15.542Z,16.8
2019-03-18T11:21:15.616Z,17.5
2019-03-18T11:24:15.549Z,17.9
2019-03-18T11:27:15.150Z,17.9
2019-03-18T11:30:15.719Z,18.3
2019-03-18T11:33:15.299Z,18.8
2019-03-18T11:36:15.195Z,19.0
2019-03-18T11:39:15.107Z,18.7
2019-03-18T11:42:15.025Z,18.6
2019-03-18T11:45:15.807Z,18.9
2019-03-18T11:48:15.380Z,19.1
2019-03-18T11:51:16.277Z,19.1
2019-03-18T11:54:15.337Z,18.7
2019-03-18T11:57:15.492Z,18.1
2019-03-18T12:00:15.245Z,17.6
2019-03-18T12:03:15.224Z,16.9
2019-03-18T12:06:14.889Z,16.6
2019-03-18T12:09:15.778Z,16.1
2019-03-18T12:12:15.710Z,16.0
2019-03-18T12:15:15.597Z,16.1
2019-03-18T12:21:16.066Z,16.7
2019-03-18T12:24:15.980Z,17.1
2019-03-18T12:27:15.963Z,17.2
2019-03-18T12:30:15.779Z,17.7
2019-03-18T12:33:15.759Z,17.7
2019-03-18T12:36:15.787Z,17.5
2019-03-18T12:39:15.690Z,17.3
2019-03-18T12:42:15.506Z,16.9
2019-03-18T12:45:20.366Z,16.5
2019-03-18T12:48:15.273Z,16.1
2019-03-18T12:51:15.103Z,15.9
2019-03-18T12:54:15.995Z,15.8
2019-03-18T12:57:14.964Z,15.8
2019-03-18T13:00:15.787Z,15.7
2019-03-18T13:03:15.938Z,15.6
2019-03-18T13:06:15.743Z,15.4
2019-03-18T13:09:15.076Z,15.3
2019-03-18T13:15:15.274Z,15.1
2019-03-18T13:18:15.437Z,14.6
2019-03-18T13:21:15.126Z,14.1
2019-03-18T13:24:15.469Z,13.2
2019-03-18T13:27:15.448Z,12.3
2019-03-18T13:30:15.668Z,11.1
2019-03-18T13:33:15.608Z,10.7
2019-03-18T13:36:15.379Z,10.5
2019-03-18T13:39:14.944Z,10.8
2019-03-18T13:42:15.515Z,11.3
2019-03-18T13:45:15.077Z,11.8
2019-03-18T13:48:15.768Z,12.2
2019-03-18T13:51:20.742Z,12.6
2019-03-18T13:54:14.937Z,12.7
2019-03-18T13:57:15.827Z,12.7
2019-03-18T14:00:15.509Z,12.6
2019-03-18T14:03:15.764Z,12.5
2019-03-18T14:06:15.481Z,12.3
2019-03-18T14:09:15.195Z,12.3
2019-03-18T14:12:15.938Z,12.4
2019-03-18T14:15:15.565Z,12.4
2019-03-18T14:18:15.651Z,12.3
2019-03-18T14:21:15.311Z,12.1
2019-03-18T14:24:15.079Z,12.1
2019-03-18T14:27:15.687Z,12.1
2019-03-18T14:30:15.463Z,12.3
2019-03-18T14:33:15.047Z,12.7
2019-03-18T14:36:15.700Z,13.0
2019-03-18T14:39:15.295Z,13.2
2019-03-18T14:42:15.207Z,13.2
2019-03-18T14:48:15.343Z,13.2
2019-03-18T14:51:15.005Z,13.1
2019-03-18T14:54:15.646Z,13.1
2019-03-18T14:57:15.251Z,13.1
2019-03-18T15:00:15.766Z,13.1
2019-03-18T15:03:15.649Z,13.1
2019-03-18T15:06:15.525Z,13.2
2019-03-18T15:09:15.164Z,13.2
2019-03-18T15:12:16.047Z,13.1
2019-03-18T15:15:15.725Z,13.2
2019-03-18T15:18:15.710Z,13.2
2019-03-18T15:21:15.740Z,13.1
2019-03-18T15:24:17.227Z,12.9
2019-03-18T15:27:15.439Z,12.8
2019-03-18T15:30:15.247Z,12.8
2019-03-18T15:33:15.877Z,12.9
2019-03-18T15:36:15.803Z,12.9
2019-03-18T15:39:15.141Z,12.9
2019-03-18T15:42:15.072Z,12.9
2019-03-18T15:45:15.803Z,12.9
2019-03-18T15:48:15.822Z,12.8
2019-03-18T15:51:15.032Z,12.8
2019-03-18T15:54:15.869Z,12.8
2019-03-18T15:57:15.580Z,12.7
2019-03-18T16:00:15.761Z,12.7
2019-03-18T16:03:15.935Z,12.7
2019-03-18T16:06:15.642Z,12.6
2019-03-18T16:09:15.586Z,12.5
2019-03-18T16:12:15.583Z,12.5
2019-03-18T16:15:15.430Z,12.4
2019-03-18T16:18:15.265Z,12.3
2019-03-18T16:21:15.841Z,12.1
2019-03-18T16:24:17.112Z,12.0
2019-03-18T16:27:15.637Z,11.9
2019-03-18T16:30:15.632Z,11.8
2019-03-18T16:33:15.556Z,11.6
2019-03-18T16:36:15.306Z,11.5
2019-03-18T16:39:15.897Z,11.5
2019-03-18T16:42:15.738Z,11.4
2019-03-18T16:45:15.674Z,11.4
2019-03-18T16:48:15.408Z,11.3
2019-03-18T16:51:15.257Z,11.4
2019-03-18T16:54:15.232Z,11.4
2019-03-18T16:57:15.081Z,11.4
2019-03-18T17:00:16.032Z,11.4
2019-03-18T17:06:15.281Z,11.4
2019-03-18T17:09:15.958Z,11.5
2019-03-18T17:12:15.918Z,11.4
2019-03-18T17:15:15.924Z,11.4
2019-03-18T17:18:17.878Z,11.4
2019-03-18T17:21:15.854Z,11.4
2019-03-18T17:24:15.530Z,11.4
2019-03-18T17:27:15.490Z,11.3
2019-03-18T17:30:15.379Z,11.3
2019-03-18T17:33:15.285Z,11.2
2019-03-18T17:36:15.082Z,11.2
2019-03-18T17:42:15.210Z,11.1
2019-03-18T17:45:15.187Z,11.0
2019-03-18T17:48:15.943Z,10.9
2019-03-18T17:51:15.698Z,10.7
2019-03-18T17:54:15.826Z,10.5
2019-03-18T17:57:15.694Z,10.4
2019-03-18T18:00:15.540Z,10.2
2019-03-18T18:03:15.896Z,10.1
2019-03-18T18:06:15.641Z,10.0
2019-03-18T18:09:15.381Z,9.9
2019-03-18T18:12:15.730Z,9.8
2019-03-18T18:15:15.429Z,9.7
2019-03-18T18:18:15.306Z,9.7
2019-03-18T18:21:15.108Z,9.6
2019-03-18T18:24:16.016Z,9.6
2019-03-18T18:27:15.922Z,9.6
2019-03-18T18:30:15.799Z,9.6
2019-03-18T18:33:15.736Z,9.6
2019-03-18T18:36:15.487Z,9.6
2019-03-18T18:39:15.452Z,9.6
2019-03-18T18:42:15.004Z,9.6
2019-03-18T18:45:16.737Z,9.6
2019-03-18T18:48:15.378Z,9.5
2019-03-18T18:51:15.341Z,9.4
2019-03-18T18:54:15.092Z,9.4
2019-03-18T18:57:16.005Z,9.4
2019-03-18T19:00:15.904Z,9.3
2019-03-18T19:03:15.754Z,9.2
2019-03-18T19:06:15.472Z,9.2
2019-03-18T19:09:15.482Z,9.1
2019-03-18T19:12:15.317Z,9.1
2019-03-18T19:15:15.083Z,9.0
2019-03-18T19:18:15.048Z,9.0
2019-03-18T19:21:15.730Z,9.0
2019-03-18T19:24:15.783Z,8.9
2019-03-18T19:27:15.736Z,8.8
2019-03-18T19:30:15.484Z,8.8
2019-03-18T19:33:15.266Z,8.8
2019-03-18T19:36:15.103Z,8.7
2019-03-18T19:39:15.969Z,8.7
2019-03-18T19:42:15.827Z,8.6
2019-03-18T19:45:15.707Z,8.5
2019-03-18T19:48:15.590Z,8.4
2019-03-18T19:51:15.414Z,8.4
2019-03-18T19:54:15.233Z,8.3
2019-03-18T19:57:15.357Z,8.2
2019-03-18T20:00:15.194Z,8.1
2019-03-18T20:03:15.008Z,8.0
2019-03-18T20:06:15.131Z,8.0
2019-03-18T20:09:15.994Z,8.0
2019-03-18T20:12:15.853Z,7.9
2019-03-18T20:15:15.707Z,7.9
2019-03-18T20:18:15.102Z,7.9
2019-03-18T20:21:15.963Z,7.8
2019-03-18T20:24:15.722Z,7.8
2019-03-18T20:27:15.676Z,7.8
2019-03-18T20:30:15.548Z,7.7
2019-03-18T20:33:15.426Z,7.7
2019-03-18T20:36:15.362Z,7.6
2019-03-18T20:39:15.365Z,7.5
2019-03-18T20:42:15.347Z,7.5
2019-03-18T20:45:15.213Z,7.5
2019-03-18T20:48:15.190Z,7.4
2019-03-18T20:51:15.066Z,7.4
2019-03-18T20:54:15.851Z,7.4
2019-03-18T20:57:15.701Z,7.5
2019-03-18T21:00:15.339Z,7.5
2019-03-18T21:03:15.516Z,7.5
2019-03-18T21:06:15.495Z,7.5
2019-03-18T21:09:15.499Z,7.5
2019-03-18T21:12:15.460Z,7.5
2019-03-18T21:15:15.375Z,7.5
2019-03-18T21:18:15.259Z,7.5
2019-03-18T21:21:15.822Z,7.5
2019-03-18T21:24:22.930Z,7.5
2019-03-18T21:27:15.772Z,7.5
2019-03-18T21:30:15.764Z,7.5
2019-03-18T21:33:15.612Z,7.4
2019-03-18T21:36:28.150Z,7.4
2019-03-18T21:39:17.984Z,7.4
2019-03-18T21:42:15.112Z,7.4
2019-03-18T21:45:15.960Z,7.4
2019-03-18T21:48:15.772Z,7.4
2019-03-18T21:51:15.039Z,7.3
2019-03-18T21:54:15.865Z,7.3
2019-03-18T21:57:15.171Z,7.4
2019-03-18T22:00:15.693Z,7.4
2019-03-18T22:03:15.168Z,7.4
2019-03-18T22:06:15.499Z,7.4
2019-03-18T22:09:15.630Z,7.4
2019-03-18T22:12:15.223Z,7.4
2019-03-18T22:15:15.150Z,7.3
2019-03-18T22:18:15.836Z,7.2
2019-03-18T22:21:15.691Z,7.2
2019-03-18T22:24:15.379Z,7.1
2019-03-18T22:27:15.093Z,7.0
2019-03-18T22:30:15.822Z,6.9
2019-03-18T22:33:15.470Z,6.9
2019-03-18T22:36:15.060Z,6.8
2019-03-18T22:39:15.775Z,6.8
2019-03-18T22:42:15.641Z,6.7
2019-03-18T22:45:15.258Z,6.7
2019-03-18T22:48:15.171Z,6.6
2019-03-18T22:51:15.954Z,6.6
2019-03-18T22:57:15.025Z,6.5
2019-03-18T23:00:15.063Z,6.5
2019-03-18T23:03:15.274Z,6.5
2019-03-18T23:06:15.174Z,6.4
2019-03-18T23:09:15.810Z,6.4
2019-03-18T23:12:15.554Z,6.4
2019-03-18T23:15:15.478Z,6.4
2019-03-18T23:18:15.603Z,6.4
2019-03-18T23:21:15.503Z,6.3
2019-03-18T23:24:15.080Z,6.2
2019-03-18T23:27:15.683Z,6.1
2019-03-18T23:30:15.380Z,6.1
2019-03-18T23:33:15.117Z,6.0
2019-03-18T23:36:15.913Z,6.0
2019-03-18T23:39:15.682Z,5.9
2019-03-18T23:45:15.638Z,5.8
2019-03-18T23:48:15.243Z,5.7
2019-03-18T23:51:15.962Z,5.7
2019-03-18T23:54:15.618Z,5.7
